sensor_id;sensor_type;location;lat;lon;timestamp;temperature;humidity
65854;DHT22;52627;48.838;2.402;2023-03-01T00:01:39;3.79;43.90
65854;DHT22;52627;48.838;2.402;2023-03-01T00:04:07;3.78;43.95
65854;DHT22;52627;48.838;2.402;2023-03-01T00:06:34;3.77;44.00
65854;DHT22;52627;48.838;2.402;2023-03-01T00:09:02;3.74;44.11
65854;DHT22;52627;48.838;2.402;2023-03-01T00:11:30;3.72;44.16
65854;DHT22;52627;48.838;2.402;2023-03-01T00:14:00;3.69;44.23
65854;DHT22;52627;48.838;2.402;2023-03-01T00:16:30;3.66;44.32
65854;DHT22;52627;48.838;2.402;2023-03-01T00:19:01;3.61;44.40
65854;DHT22;52627;48.838;2.402;2023-03-01T00:21:29;3.59;44.46
65854;DHT22;52627;48.838;2.402;2023-03-01T00:23:57;3.56;44.56
65854;DHT22;52627;48.838;2.402;2023-03-01T00:26:25;3.53;44.63
65854;DHT22;52627;48.838;2.402;2023-03-01T00:28:54;3.52;44.70
65854;DHT22;52627;48.838;2.402;2023-03-01T00:31:28;3.51;44.76
65854;DHT22;52627;48.838;2.402;2023-03-01T00:34:02;3.51;44.81
65854;DHT22;52627;48.838;2.402;2023-03-01T00:36:32;3.51;44.89
65854;DHT22;52627;48.838;2.402;2023-03-01T00:39:03;3.51;44.98
65854;DHT22;52627;48.838;2.402;2023-03-01T00:41:32;3.48;45.04
65854;DHT22;52627;48.838;2.402;2023-03-01T00:44:01;3.46;45.11
65854;DHT22;52627;48.838;2.402;2023-03-01T00:46:29;3.41;45.21
65854;DHT22;52627;48.838;2.402;2023-03-01T00:49:01;3.39;45.26
65854;DHT22;52627;48.838;2.402;2023-03-01T00:51:29;3.38;45.31
65854;DHT22;52627;48.838;2.402;2023-03-01T00:53:58;3.37;45.39
65854;DHT22;52627;48.838;2.402;2023-03-01T00:56:27;3.36;45.46
65854;DHT22;52627;48.838;2.402;2023-03-01T00:58:57;3.33;45.58
65854;DHT22;52627;48.838;2.402;2023-03-01T01:01:25;3.28;45.64
65854;DHT22;52627;48.838;2.402;2023-03-01T01:03:59;3.26;45.71
65854;DHT22;52627;48.838;2.402;2023-03-01T01:06:43;3.24;45.81
65854;DHT22;52627;48.838;2.402;2023-03-01T01:09:14;3.23;45.93
65854;DHT22;52627;48.838;2.402;2023-03-01T01:11:45;3.21;45.96
65854;DHT22;52627;48.838;2.402;2023-03-01T01:14:14;3.21;45.96
65854;DHT22;52627;48.838;2.402;2023-03-01T01:16:42;3.20;46.09
65854;DHT22;52627;48.838;2.402;2023-03-01T01:19:13;3.18;46.19
65854;DHT22;52627;48.838;2.402;2023-03-01T01:21:41;3.15;46.25
65854;DHT22;52627;48.838;2.402;2023-03-01T01:24:10;3.12;46.31
65854;DHT22;52627;48.838;2.402;2023-03-01T01:26:38;3.11;46.40
65854;DHT22;52627;48.838;2.402;2023-03-01T01:29:06;3.10;46.46
65854;DHT22;52627;48.838;2.402;2023-03-01T01:31:34;3.09;46.52
65854;DHT22;52627;48.838;2.402;2023-03-01T01:34:04;3.08;46.58
65854;DHT22;52627;48.838;2.402;2023-03-01T01:36:34;3.06;46.63
65854;DHT22;52627;48.838;2.402;2023-03-01T01:39:03;3.07;46.70
65854;DHT22;52627;48.838;2.402;2023-03-01T01:41:31;3.05;46.73
65854;DHT22;52627;48.838;2.402;2023-03-01T01:44:12;3.04;46.81
65854;DHT22;52627;48.838;2.402;2023-03-01T01:46:52;3.02;46.93
65854;DHT22;52627;48.838;2.402;2023-03-01T01:49:24;2.99;47.03
65854;DHT22;52627;48.838;2.402;2023-03-01T01:52:00;2.95;47.08
65854;DHT22;52627;48.838;2.402;2023-03-01T01:57:43;2.92;47.22
65854;DHT22;52627;48.838;2.402;2023-03-01T02:00:16;2.91;47.31
65854;DHT22;52627;48.838;2.402;2023-03-01T02:02:47;2.90;47.36
65854;DHT22;52627;48.838;2.402;2023-03-01T02:08:12;2.88;47.50
65854;DHT22;52627;48.838;2.402;2023-03-01T02:10:41;2.86;47.59
65854;DHT22;52627;48.838;2.402;2023-03-01T02:13:09;2.86;47.62
65854;DHT22;52627;48.838;2.402;2023-03-01T02:15:38;2.85;47.72
65854;DHT22;52627;48.838;2.402;2023-03-01T02:18:07;2.83;47.77
65854;DHT22;52627;48.838;2.402;2023-03-01T02:21:03;2.82;47.81
65854;DHT22;52627;48.838;2.402;2023-03-01T02:23:44;2.81;47.93
65854;DHT22;52627;48.838;2.402;2023-03-01T02:26:18;2.80;47.97
65854;DHT22;52627;48.838;2.402;2023-03-01T02:28:48;2.79;48.05
65854;DHT22;52627;48.838;2.402;2023-03-01T02:31:16;2.78;48.10
65854;DHT22;52627;48.838;2.402;2023-03-01T02:34:05;2.77;48.11
65854;DHT22;52627;48.838;2.402;2023-03-01T02:36:40;2.77;48.15
65854;DHT22;52627;48.838;2.402;2023-03-01T02:39:18;2.76;48.22
65854;DHT22;52627;48.838;2.402;2023-03-01T02:41:53;2.74;48.33
65854;DHT22;52627;48.838;2.402;2023-03-01T02:44:23;2.73;48.36
65854;DHT22;52627;48.838;2.402;2023-03-01T02:46:51;2.73;48.42
65854;DHT22;52627;48.838;2.402;2023-03-01T02:49:23;2.72;48.47
65854;DHT22;52627;48.838;2.402;2023-03-01T02:52:10;2.71;48.54
65854;DHT22;52627;48.838;2.402;2023-03-01T02:57:30;2.66;48.66
65854;DHT22;52627;48.838;2.402;2023-03-01T03:00:10;2.65;48.71
65854;DHT22;52627;48.838;2.402;2023-03-01T03:02:47;2.63;48.82
65854;DHT22;52627;48.838;2.402;2023-03-01T03:05:18;2.61;48.91
65854;DHT22;52627;48.838;2.402;2023-03-01T03:07:50;2.61;48.95
65854;DHT22;52627;48.838;2.402;2023-03-01T03:10:19;2.59;49.04
65854;DHT22;52627;48.838;2.402;2023-03-01T03:12:57;2.58;49.09
65854;DHT22;52627;48.838;2.402;2023-03-01T03:15:28;2.55;49.15
65854;DHT22;52627;48.838;2.402;2023-03-01T03:17:56;2.53;49.21
65854;DHT22;52627;48.838;2.402;2023-03-01T03:20:26;2.51;49.22
65854;DHT22;52627;48.838;2.402;2023-03-01T03:22:56;2.49;49.32
65854;DHT22;52627;48.838;2.402;2023-03-01T03:25:25;2.48;49.35
65854;DHT22;52627;48.838;2.402;2023-03-01T03:27:56;2.46;49.40
65854;DHT22;52627;48.838;2.402;2023-03-01T03:30:26;2.45;49.50
65854;DHT22;52627;48.838;2.402;2023-03-01T03:32:58;2.44;49.57
65854;DHT22;52627;48.838;2.402;2023-03-01T03:35:27;2.43;49.60
65854;DHT22;52627;48.838;2.402;2023-03-01T03:38:07;2.42;49.65
65854;DHT22;52627;48.838;2.402;2023-03-01T03:40:43;2.42;49.72
65854;DHT22;52627;48.838;2.402;2023-03-01T03:43:15;2.42;49.80
65854;DHT22;52627;48.838;2.402;2023-03-01T03:45:49;2.40;49.82
65854;DHT22;52627;48.838;2.402;2023-03-01T03:48:18;2.40;49.89
65854;DHT22;52627;48.838;2.402;2023-03-01T03:50:50;2.40;49.95
65854;DHT22;52627;48.838;2.402;2023-03-01T03:53:21;2.39;50.06
65854;DHT22;52627;48.838;2.402;2023-03-01T03:55:51;2.37;50.11
65854;DHT22;52627;48.838;2.402;2023-03-01T03:58:19;2.35;50.14
65854;DHT22;52627;48.838;2.402;2023-03-01T04:00:50;2.34;50.20
65854;DHT22;52627;48.838;2.402;2023-03-01T04:03:23;2.33;50.28
65854;DHT22;52627;48.838;2.402;2023-03-01T04:05:52;2.33;50.32
65854;DHT22;52627;48.838;2.402;2023-03-01T04:08:21;2.32;50.39
65854;DHT22;52627;48.838;2.402;2023-03-01T04:10:50;2.31;50.46
65854;DHT22;52627;48.838;2.402;2023-03-01T04:13:23;2.30;50.55
65854;DHT22;52627;48.838;2.402;2023-03-01T04:15:53;2.27;50.60
65854;DHT22;52627;48.838;2.402;2023-03-01T04:18:22;2.26;50.65
65854;DHT22;52627;48.838;2.402;2023-03-01T04:20:52;2.24;50.76
65854;DHT22;52627;48.838;2.402;2023-03-01T04:23:22;2.22;50.81
65854;DHT22;52627;48.838;2.402;2023-03-01T04:25:51;2.21;50.82
65854;DHT22;52627;48.838;2.402;2023-03-01T04:28:31;2.20;51.02
65854;DHT22;52627;48.838;2.402;2023-03-01T04:31:06;2.17;51.08
65854;DHT22;52627;48.838;2.402;2023-03-01T04:33:54;2.17;51.18
65854;DHT22;52627;48.838;2.402;2023-03-01T04:36:26;2.15;51.18
65854;DHT22;52627;48.838;2.402;2023-03-01T04:38:56;2.14;51.30
65854;DHT22;52627;48.838;2.402;2023-03-01T04:41:24;2.11;51.30
65854;DHT22;52627;48.838;2.402;2023-03-01T04:43:52;2.12;51.33
65854;DHT22;52627;48.838;2.402;2023-03-01T04:46:20;2.12;51.43
65854;DHT22;52627;48.838;2.402;2023-03-01T04:48:48;2.11;51.48
65854;DHT22;52627;48.838;2.402;2023-03-01T04:51:15;2.09;51.54
65854;DHT22;52627;48.838;2.402;2023-03-01T04:53:43;2.09;51.57
65854;DHT22;52627;48.838;2.402;2023-03-01T04:56:11;2.08;51.67
65854;DHT22;52627;48.838;2.402;2023-03-01T04:58:41;2.06;51.70
65854;DHT22;52627;48.838;2.402;2023-03-01T05:01:13;2.07;51.71
65854;DHT22;52627;48.838;2.402;2023-03-01T05:03:44;2.07;51.74
65854;DHT22;52627;48.838;2.402;2023-03-01T05:06:14;2.06;51.84
65854;DHT22;52627;48.838;2.402;2023-03-01T05:08:43;2.06;51.87
65854;DHT22;52627;48.838;2.402;2023-03-01T05:11:11;2.04;51.89
65854;DHT22;52627;48.838;2.402;2023-03-01T05:13:39;2.04;51.97
65854;DHT22;52627;48.838;2.402;2023-03-01T05:16:07;2.04;52.05
65854;DHT22;52627;48.838;2.402;2023-03-01T05:18:38;2.02;52.09
65854;DHT22;52627;48.838;2.402;2023-03-01T05:21:09;2.02;52.13
65854;DHT22;52627;48.838;2.402;2023-03-01T05:23:39;2.01;52.19
65854;DHT22;52627;48.838;2.402;2023-03-01T05:26:08;2.00;52.30
65854;DHT22;52627;48.838;2.402;2023-03-01T05:28:53;2.00;52.39
65854;DHT22;52627;48.838;2.402;2023-03-01T05:31:26;1.97;52.51
65854;DHT22;52627;48.838;2.402;2023-03-01T05:33:54;1.96;52.51
65854;DHT22;52627;48.838;2.402;2023-03-01T05:36:21;1.95;52.57
65854;DHT22;52627;48.838;2.402;2023-03-01T05:38:49;1.94;52.61
65854;DHT22;52627;48.838;2.402;2023-03-01T05:41:16;1.95;52.61
65854;DHT22;52627;48.838;2.402;2023-03-01T05:43:44;1.94;52.66
65854;DHT22;52627;48.838;2.402;2023-03-01T05:46:12;1.93;52.77
65854;DHT22;52627;48.838;2.402;2023-03-01T05:48:40;1.92;52.80
65854;DHT22;52627;48.838;2.402;2023-03-01T05:51:08;1.91;52.82
65854;DHT22;52627;48.838;2.402;2023-03-01T05:53:35;1.90;52.86
65854;DHT22;52627;48.838;2.402;2023-03-01T05:56:03;1.89;52.90
65854;DHT22;52627;48.838;2.402;2023-03-01T05:58:31;1.90;52.97
65854;DHT22;52627;48.838;2.402;2023-03-01T06:00:59;1.88;53.03
65854;DHT22;52627;48.838;2.402;2023-03-01T06:03:26;1.87;53.06
65854;DHT22;52627;48.838;2.402;2023-03-01T06:05:57;1.86;53.10
65854;DHT22;52627;48.838;2.402;2023-03-01T06:08:25;1.85;53.16
65854;DHT22;52627;48.838;2.402;2023-03-01T06:10:54;1.83;53.21
65854;DHT22;52627;48.838;2.402;2023-03-01T06:13:22;1.83;53.30
65854;DHT22;52627;48.838;2.402;2023-03-01T06:15:50;1.81;53.38
65854;DHT22;52627;48.838;2.402;2023-03-01T06:18:19;1.79;53.41
65854;DHT22;52627;48.838;2.402;2023-03-01T06:20:52;1.78;53.47
65854;DHT22;52627;48.838;2.402;2023-03-01T06:23:22;1.77;53.52
65854;DHT22;52627;48.838;2.402;2023-03-01T06:25:50;1.76;53.61
65854;DHT22;52627;48.838;2.402;2023-03-01T06:28:17;1.73;53.71
65854;DHT22;52627;48.838;2.402;2023-03-01T06:30:45;1.72;53.76
65854;DHT22;52627;48.838;2.402;2023-03-01T06:33:13;1.71;53.88
65854;DHT22;52627;48.838;2.402;2023-03-01T06:35:41;1.70;53.96
65854;DHT22;52627;48.838;2.402;2023-03-01T06:38:08;1.67;54.04
65854;DHT22;52627;48.838;2.402;2023-03-01T06:40:36;1.65;54.11
65854;DHT22;52627;48.838;2.402;2023-03-01T06:43:04;1.64;54.20
65854;DHT22;52627;48.838;2.402;2023-03-01T06:45:31;1.64;54.26
65854;DHT22;52627;48.838;2.402;2023-03-01T06:48:05;1.63;54.37
65854;DHT22;52627;48.838;2.402;2023-03-01T06:50:34;1.63;54.44
65854;DHT22;52627;48.838;2.402;2023-03-01T06:53:03;1.62;54.60
65854;DHT22;52627;48.838;2.402;2023-03-01T06:55:31;1.63;54.66
65854;DHT22;52627;48.838;2.402;2023-03-01T06:57:59;1.62;54.77
65854;DHT22;52627;48.838;2.402;2023-03-01T07:00:28;1.62;54.88
65854;DHT22;52627;48.838;2.402;2023-03-01T07:03:00;1.64;54.91
65854;DHT22;52627;48.838;2.402;2023-03-01T07:05:29;1.64;55.02
65854;DHT22;52627;48.838;2.402;2023-03-01T07:07:57;1.64;55.02
65854;DHT22;52627;48.838;2.402;2023-03-01T07:10:25;1.64;55.16
65854;DHT22;52627;48.838;2.402;2023-03-01T07:12:56;1.65;55.18
65854;DHT22;52627;48.838;2.402;2023-03-01T07:15:25;1.66;55.23
65854;DHT22;52627;48.838;2.402;2023-03-01T07:17:54;1.65;55.30
65854;DHT22;52627;48.838;2.402;2023-03-01T07:20:21;1.65;55.32
65854;DHT22;52627;48.838;2.402;2023-03-01T07:22:52;1.68;55.40
65854;DHT22;52627;48.838;2.402;2023-03-01T07:25:20;1.70;55.44
65854;DHT22;52627;48.838;2.402;2023-03-01T07:27:49;1.72;55.42
65854;DHT22;52627;48.838;2.402;2023-03-01T07:30:18;1.75;55.55
65854;DHT22;52627;48.838;2.402;2023-03-01T07:32:46;1.78;55.60
65854;DHT22;52627;48.838;2.402;2023-03-01T07:35:14;1.82;55.62
65854;DHT22;52627;48.838;2.402;2023-03-01T07:37:42;1.84;55.63
65854;DHT22;52627;48.838;2.402;2023-03-01T07:40:09;1.87;55.70
65854;DHT22;52627;48.838;2.402;2023-03-01T07:42:38;1.89;55.70
65854;DHT22;52627;48.838;2.402;2023-03-01T07:45:06;1.94;55.71
65854;DHT22;52627;48.838;2.402;2023-03-01T07:47:34;1.97;55.71
65854;DHT22;52627;48.838;2.402;2023-03-01T07:50:03;2.02;55.72
65854;DHT22;52627;48.838;2.402;2023-03-01T07:52:31;2.05;55.72
65854;DHT22;52627;48.838;2.402;2023-03-01T07:54:58;2.08;55.74
65854;DHT22;52627;48.838;2.402;2023-03-01T07:57:26;2.13;55.77
65854;DHT22;52627;48.838;2.402;2023-03-01T07:59:53;2.15;55.80
65854;DHT22;52627;48.838;2.402;2023-03-01T08:02:21;2.16;55.80
65854;DHT22;52627;48.838;2.402;2023-03-01T08:04:48;2.21;55.79
65854;DHT22;52627;48.838;2.402;2023-03-01T08:07:16;2.26;55.79
65854;DHT22;52627;48.838;2.402;2023-03-01T08:09:43;2.32;55.80
65854;DHT22;52627;48.838;2.402;2023-03-01T08:12:10;2.38;55.79
65854;DHT22;52627;48.838;2.402;2023-03-01T08:14:38;2.45;55.75
65854;DHT22;52627;48.838;2.402;2023-03-01T08:17:05;2.55;55.73
65854;DHT22;52627;48.838;2.402;2023-03-01T08:19:33;2.67;55.70
65854;DHT22;52627;48.838;2.402;2023-03-01T08:22:02;2.78;55.64
65854;DHT22;52627;48.838;2.402;2023-03-01T08:24:29;2.89;55.60
65854;DHT22;52627;48.838;2.402;2023-03-01T08:26:57;2.98;55.53
65854;DHT22;52627;48.838;2.402;2023-03-01T08:29:25;3.09;55.46
65854;DHT22;52627;48.838;2.402;2023-03-01T08:31:52;3.21;55.40
65854;DHT22;52627;48.838;2.402;2023-03-01T08:34:20;3.36;55.39
65854;DHT22;52627;48.838;2.402;2023-03-01T08:36:47;3.53;55.32
65854;DHT22;52627;48.838;2.402;2023-03-01T08:39:15;3.66;55.17
65854;DHT22;52627;48.838;2.402;2023-03-01T08:41:46;3.79;55.04
65854;DHT22;52627;48.838;2.402;2023-03-01T08:44:14;3.93;54.94
65854;DHT22;52627;48.838;2.402;2023-03-01T08:46:43;4.07;54.82
65854;DHT22;52627;48.838;2.402;2023-03-01T08:49:16;4.23;54.72
65854;DHT22;52627;48.838;2.402;2023-03-01T08:51:45;4.40;54.53
65854;DHT22;52627;48.838;2.402;2023-03-01T08:54:17;4.58;54.39
65854;DHT22;52627;48.838;2.402;2023-03-01T08:56:47;4.84;54.24
65854;DHT22;52627;48.838;2.402;2023-03-01T08:59:16;5.18;54.04
65854;DHT22;52627;48.838;2.402;2023-03-01T09:01:44;5.42;53.78
65854;DHT22;52627;48.838;2.402;2023-03-01T09:04:12;5.61;53.54
65854;DHT22;52627;48.838;2.402;2023-03-01T09:06:42;5.93;53.30
65854;DHT22;52627;48.838;2.402;2023-03-01T09:09:15;6.27;52.94
65854;DHT22;52627;48.838;2.402;2023-03-01T09:11:45;6.66;52.67
65854;DHT22;52627;48.838;2.402;2023-03-01T09:14:13;7.07;52.26
65854;DHT22;52627;48.838;2.402;2023-03-01T09:16:41;7.50;51.92
65854;DHT22;52627;48.838;2.402;2023-03-01T09:19:09;7.89;51.31
65854;DHT22;52627;48.838;2.402;2023-03-01T09:21:38;8.24;50.92
65854;DHT22;52627;48.838;2.402;2023-03-01T09:24:14;8.55;50.30
65854;DHT22;52627;48.838;2.402;2023-03-01T09:26:42;8.80;49.65
65854;DHT22;52627;48.838;2.402;2023-03-01T09:29:15;8.97;49.28
65854;DHT22;52627;48.838;2.402;2023-03-01T09:31:43;9.25;49.11
65854;DHT22;52627;48.838;2.402;2023-03-01T09:34:11;9.55;48.73
65854;DHT22;52627;48.838;2.402;2023-03-01T09:36:42;9.88;48.45
65854;DHT22;52627;48.838;2.402;2023-03-01T09:39:09;10.06;47.48
65854;DHT22;52627;48.838;2.402;2023-03-01T09:46:56;10.65;46.47
65854;DHT22;52627;48.838;2.402;2023-03-01T09:49:35;10.96;46.21
65854;DHT22;52627;48.838;2.402;2023-03-01T09:52:18;11.39;45.54
65854;DHT22;52627;48.838;2.402;2023-03-01T09:55:08;11.71;45.09
65854;DHT22;52627;48.838;2.402;2023-03-01T09:57:52;11.99;44.53
65854;DHT22;52627;48.838;2.402;2023-03-01T10:00:33;12.14;43.91
65854;DHT22;52627;48.838;2.402;2023-03-01T10:03:31;12.20;43.35
65854;DHT22;52627;48.838;2.402;2023-03-01T10:11:42;12.91;41.93
65854;DHT22;52627;48.838;2.402;2023-03-01T10:14:32;13.08;41.15
65854;DHT22;52627;48.838;2.402;2023-03-01T10:17:08;13.55;40.97
65854;DHT22;52627;48.838;2.402;2023-03-01T10:19:47;13.94;40.21
65854;DHT22;52627;48.838;2.402;2023-03-01T10:22:15;14.06;39.69
65854;DHT22;52627;48.838;2.402;2023-03-01T10:24:52;14.10;39.40
65854;DHT22;52627;48.838;2.402;2023-03-01T10:27:25;14.16;39.06
65854;DHT22;52627;48.838;2.402;2023-03-01T10:32:47;13.93;38.13
65854;DHT22;52627;48.838;2.402;2023-03-01T10:35:19;13.87;37.67
65854;DHT22;52627;48.838;2.402;2023-03-01T10:38:02;13.87;37.45
65854;DHT22;52627;48.838;2.402;2023-03-01T10:40:37;13.94;37.27
65854;DHT22;52627;48.838;2.402;2023-03-01T10:43:32;13.85;37.03
65854;DHT22;52627;48.838;2.402;2023-03-01T10:49:18;13.25;36.35
65854;DHT22;52627;48.838;2.402;2023-03-01T10:51:50;12.94;36.26
65854;DHT22;52627;48.838;2.402;2023-03-01T10:54:29;12.66;36.13
65854;DHT22;52627;48.838;2.402;2023-03-01T10:57:01;12.45;36.01
65854;DHT22;52627;48.838;2.402;2023-03-01T10:59:34;12.23;35.78
65854;DHT22;52627;48.838;2.402;2023-03-01T11:05:02;11.60;35.72
65854;DHT22;52627;48.838;2.402;2023-03-01T11:07:52;11.31;35.66
65854;DHT22;52627;48.838;2.402;2023-03-01T11:10:26;11.07;35.67
65854;DHT22;52627;48.838;2.402;2023-03-01T11:13:20;10.99;35.69
65854;DHT22;52627;48.838;2.402;2023-03-01T11:16:03;10.98;35.71
65854;DHT22;52627;48.838;2.402;2023-03-01T11:18:35;10.83;35.72
65854;DHT22;52627;48.838;2.402;2023-03-01T11:21:14;10.77;35.83
65854;DHT22;52627;48.838;2.402;2023-03-01T11:23:43;10.76;35.78
65854;DHT22;52627;48.838;2.402;2023-03-01T11:26:16;10.79;35.82
65854;DHT22;52627;48.838;2.402;2023-03-01T11:28:44;10.90;35.89
65854;DHT22;52627;48.838;2.402;2023-03-01T11:31:20;11.02;35.85
65854;DHT22;52627;48.838;2.402;2023-03-01T11:34:07;11.15;35.85
65854;DHT22;52627;48.838;2.402;2023-03-01T11:36:43;11.27;35.81
65854;DHT22;52627;48.838;2.402;2023-03-01T11:42:02;11.40;35.80
65854;DHT22;52627;48.838;2.402;2023-03-01T11:44:46;11.54;35.77
65854;DHT22;52627;48.838;2.402;2023-03-01T11:53:01;11.97;35.64
65854;DHT22;52627;48.838;2.402;2023-03-01T11:55:54;12.16;35.59
65854;DHT22;52627;48.838;2.402;2023-03-01T12:01:44;12.51;35.35
65854;DHT22;52627;48.838;2.402;2023-03-01T12:04:48;12.50;35.16
65854;DHT22;52627;48.838;2.402;2023-03-01T12:20:02;13.19;34.80
65854;DHT22;52627;48.838;2.402;2023-03-01T12:28:33;13.39;34.38
65854;DHT22;52627;48.838;2.402;2023-03-01T12:51:40;14.16;33.59
65854;DHT22;52627;48.838;2.402;2023-03-01T12:54:14;14.35;33.50
65854;DHT22;52627;48.838;2.402;2023-03-01T13:00:24;14.45;33.13
65854;DHT22;52627;48.838;2.402;2023-03-01T13:03:19;14.52;33.10
65854;DHT22;52627;48.838;2.402;2023-03-01T13:06:08;14.56;32.88
65854;DHT22;52627;48.838;2.402;2023-03-01T13:09:03;14.59;32.74
65854;DHT22;52627;48.838;2.402;2023-03-01T13:11:57;14.41;32.37
65854;DHT22;52627;48.838;2.402;2023-03-01T13:16:52;14.20;32.43
65854;DHT22;52627;48.838;2.402;2023-03-01T13:19:22;14.28;32.33
65854;DHT22;52627;48.838;2.402;2023-03-01T13:21:53;14.34;32.26
65854;DHT22;52627;48.838;2.402;2023-03-01T13:29:52;14.83;32.05
65854;DHT22;52627;48.838;2.402;2023-03-01T13:32:33;15.10;31.95
65854;DHT22;52627;48.838;2.402;2023-03-01T13:37:41;15.11;31.75
65854;DHT22;52627;48.838;2.402;2023-03-01T13:42:50;15.24;31.74
65854;DHT22;52627;48.838;2.402;2023-03-01T13:45:40;15.42;31.49
65854;DHT22;52627;48.838;2.402;2023-03-01T13:48:24;15.42;31.38
65854;DHT22;52627;48.838;2.402;2023-03-01T13:51:13;15.48;31.22
65854;DHT22;52627;48.838;2.402;2023-03-01T13:53:44;15.55;31.19
65854;DHT22;52627;48.838;2.402;2023-03-01T13:56:15;15.55;31.04
65854;DHT22;52627;48.838;2.402;2023-03-01T13:58:50;15.44;31.09
65854;DHT22;52627;48.838;2.402;2023-03-01T14:01:33;15.18;31.02
65854;DHT22;52627;48.838;2.402;2023-03-01T14:04:03;14.74;31.00
65854;DHT22;52627;48.838;2.402;2023-03-01T14:06:48;14.36;31.02
65854;DHT22;52627;48.838;2.402;2023-03-01T14:09:20;14.06;31.07
65854;DHT22;52627;48.838;2.402;2023-03-01T14:11:58;13.77;31.10
65854;DHT22;52627;48.838;2.402;2023-03-01T14:15:17;13.41;31.12
65854;DHT22;52627;48.838;2.402;2023-03-01T14:17:52;13.10;31.21
65854;DHT22;52627;48.838;2.402;2023-03-01T14:20:27;12.85;31.33
65854;DHT22;52627;48.838;2.402;2023-03-01T14:22:58;12.68;31.42
65854;DHT22;52627;48.838;2.402;2023-03-01T14:25:32;12.53;31.53
65854;DHT22;52627;48.838;2.402;2023-03-01T14:28:03;12.38;31.67
65854;DHT22;52627;48.838;2.402;2023-03-01T14:30:41;12.18;31.83
65854;DHT22;52627;48.838;2.402;2023-03-01T14:33:21;12.00;31.98
65854;DHT22;52627;48.838;2.402;2023-03-01T14:35:54;11.89;32.11
65854;DHT22;52627;48.838;2.402;2023-03-01T14:38:35;11.83;32.25
65854;DHT22;52627;48.838;2.402;2023-03-01T14:43:50;11.66;32.61
65854;DHT22;52627;48.838;2.402;2023-03-01T14:46:24;11.56;32.74
65854;DHT22;52627;48.838;2.402;2023-03-01T14:48:57;11.50;32.87
65854;DHT22;52627;48.838;2.402;2023-03-01T14:51:38;11.45;33.18
65854;DHT22;52627;48.838;2.402;2023-03-01T14:54:20;11.40;33.40
65854;DHT22;52627;48.838;2.402;2023-03-01T14:56:53;11.34;33.59
65854;DHT22;52627;48.838;2.402;2023-03-01T14:59:28;11.23;33.78
65854;DHT22;52627;48.838;2.402;2023-03-01T15:01:57;11.12;33.84
65854;DHT22;52627;48.838;2.402;2023-03-01T15:04:25;11.03;34.02
65854;DHT22;52627;48.838;2.402;2023-03-01T15:06:54;10.97;34.16
65854;DHT22;52627;48.838;2.402;2023-03-01T15:09:32;10.85;34.39
65854;DHT22;52627;48.838;2.402;2023-03-01T15:12:23;10.75;34.54
65854;DHT22;52627;48.838;2.402;2023-03-01T15:14:55;10.70;34.69
65854;DHT22;52627;48.838;2.402;2023-03-01T15:20:13;10.63;34.95
65854;DHT22;52627;48.838;2.402;2023-03-01T15:22:48;10.56;35.06
65854;DHT22;52627;48.838;2.402;2023-03-01T15:25:19;10.46;35.22
65854;DHT22;52627;48.838;2.402;2023-03-01T15:27:51;10.38;35.31
65854;DHT22;52627;48.838;2.402;2023-03-01T15:30:26;10.31;35.46
65854;DHT22;52627;48.838;2.402;2023-03-01T15:39:27;10.13;36.08
65854;DHT22;52627;48.838;2.402;2023-03-01T15:44:40;9.92;36.61
65854;DHT22;52627;48.838;2.402;2023-03-01T15:47:26;9.84;36.80
65854;DHT22;52627;48.838;2.402;2023-03-01T15:49:57;9.76;37.04
65854;DHT22;52627;48.838;2.402;2023-03-01T15:52:28;9.70;37.10
65854;DHT22;52627;48.838;2.402;2023-03-01T15:55:06;9.66;37.22
65854;DHT22;52627;48.838;2.402;2023-03-01T15:57:57;9.61;37.30
65854;DHT22;52627;48.838;2.402;2023-03-01T16:00:28;9.60;37.42
65854;DHT22;52627;48.838;2.402;2023-03-01T16:02:56;9.55;37.57
65854;DHT22;52627;48.838;2.402;2023-03-01T16:05:25;9.50;37.69
65854;DHT22;52627;48.838;2.402;2023-03-01T16:08:01;9.45;37.84
65854;DHT22;52627;48.838;2.402;2023-03-01T16:10:30;9.39;37.90
65854;DHT22;52627;48.838;2.402;2023-03-01T16:12:58;9.34;38.02
65854;DHT22;52627;48.838;2.402;2023-03-01T16:15:28;9.28;38.18
65854;DHT22;52627;48.838;2.402;2023-03-01T16:17:59;9.26;38.31
65854;DHT22;52627;48.838;2.402;2023-03-01T16:20:27;9.23;38.43
65854;DHT22;52627;48.838;2.402;2023-03-01T16:23:00;9.18;38.56
65854;DHT22;52627;48.838;2.402;2023-03-01T16:25:30;9.16;38.64
65854;DHT22;52627;48.838;2.402;2023-03-01T16:27:59;9.13;38.76
65854;DHT22;52627;48.838;2.402;2023-03-01T16:30:31;9.10;38.89
65854;DHT22;52627;48.838;2.402;2023-03-01T16:32:58;9.06;38.98
65854;DHT22;52627;48.838;2.402;2023-03-01T16:35:26;9.01;39.08
65854;DHT22;52627;48.838;2.402;2023-03-01T16:37:54;8.97;39.16
65854;DHT22;52627;48.838;2.402;2023-03-01T16:40:23;8.94;39.30
65854;DHT22;52627;48.838;2.402;2023-03-01T16:42:54;8.89;39.42
65854;DHT22;52627;48.838;2.402;2023-03-01T16:45:29;8.83;39.54
65854;DHT22;52627;48.838;2.402;2023-03-01T16:48:03;8.76;39.60
65854;DHT22;52627;48.838;2.402;2023-03-01T16:50:30;8.72;39.77
65854;DHT22;52627;48.838;2.402;2023-03-01T16:52:58;8.68;39.85
65854;DHT22;52627;48.838;2.402;2023-03-01T16:55:25;8.65;39.96
65854;DHT22;52627;48.838;2.402;2023-03-01T16:57:53;8.63;40.00
65854;DHT22;52627;48.838;2.402;2023-03-01T17:00:20;8.60;40.09
65854;DHT22;52627;48.838;2.402;2023-03-01T17:02:49;8.57;40.19
65854;DHT22;52627;48.838;2.402;2023-03-01T17:05:17;8.52;40.25
65854;DHT22;52627;48.838;2.402;2023-03-01T17:07:47;8.47;40.30
65854;DHT22;52627;48.838;2.402;2023-03-01T17:10:15;8.41;40.41
65854;DHT22;52627;48.838;2.402;2023-03-01T17:12:42;8.35;40.49
65854;DHT22;52627;48.838;2.402;2023-03-01T17:15:10;8.29;40.57
65854;DHT22;52627;48.838;2.402;2023-03-01T17:17:38;8.25;40.62
65854;DHT22;52627;48.838;2.402;2023-03-01T17:20:06;8.19;40.73
65854;DHT22;52627;48.838;2.402;2023-03-01T17:22:37;8.14;40.78
65854;DHT22;52627;48.838;2.402;2023-03-01T17:25:06;8.10;40.84
65854;DHT22;52627;48.838;2.402;2023-03-01T17:27:36;8.07;40.91
65854;DHT22;52627;48.838;2.402;2023-03-01T17:30:05;8.03;40.97
65854;DHT22;52627;48.838;2.402;2023-03-01T17:32:35;7.99;41.09
65854;DHT22;52627;48.838;2.402;2023-03-01T17:35:03;7.94;41.18
65854;DHT22;52627;48.838;2.402;2023-03-01T17:37:31;7.91;41.25
65854;DHT22;52627;48.838;2.402;2023-03-01T17:39:58;7.88;41.30
65854;DHT22;52627;48.838;2.402;2023-03-01T17:42:26;7.87;41.40
65854;DHT22;52627;48.838;2.402;2023-03-01T17:44:53;7.84;41.49
65854;DHT22;52627;48.838;2.402;2023-03-01T17:47:21;7.79;41.56
65854;DHT22;52627;48.838;2.402;2023-03-01T17:49:48;7.78;41.65
65854;DHT22;52627;48.838;2.402;2023-03-01T17:52:16;7.74;41.70
65854;DHT22;52627;48.838;2.402;2023-03-01T17:54:43;7.71;41.73
65854;DHT22;52627;48.838;2.402;2023-03-01T17:57:10;7.66;41.80
65854;DHT22;52627;48.838;2.402;2023-03-01T17:59:39;7.62;41.89
65854;DHT22;52627;48.838;2.402;2023-03-01T18:02:06;7.57;41.96
65854;DHT22;52627;48.838;2.402;2023-03-01T18:04:38;7.52;42.01